createdAt,value
2023-02-24T00:02:05.253Z,71.10
2023-02-24T00:04:41.057Z,73.50
2023-02-24T00:07:12.817Z,67.90
2023-02-24T00:09:39.646Z,70.70
2023-02-24T00:12:13.602Z,73.00
2023-02-24T00:14:43.346Z,74.40
2023-02-24T00:17:10.926Z,74.60
2023-02-24T00:19:38.432Z,73.60
2023-02-24T00:22:08.158Z,70.60
2023-02-24T00:24:35.887Z,73.50
2023-02-24T00:27:07.895Z,67.80
2023-02-24T00:29:37.605Z,70.40
2023-02-24T00:32:07.164Z,73.00
2023-02-24T00:34:36.373Z,73.10
2023-02-24T00:37:06.749Z,69.50
2023-02-24T00:39:34.131Z,67.00
2023-02-24T00:42:07.000Z,66.00
2023-02-24T00:44:37.216Z,67.00
2023-02-24T00:47:05.693Z,74.20
2023-02-24T00:49:35.787Z,71.80
2023-02-24T00:52:06.637Z,69.90
2023-02-24T00:54:36.731Z,64.10
2023-02-24T00:57:04.102Z,74.10
2023-02-24T00:59:30.848Z,61.90
2023-02-24T01:01:58.007Z,78.00
2023-02-24T01:04:25.025Z,73.30
2023-02-24T01:07:00.512Z,77.70
2023-02-24T01:09:31.189Z,76.60
2023-02-24T01:12:17.591Z,68.60
2023-02-24T01:14:49.470Z,74.90
2023-02-24T01:17:18.567Z,74.30
2023-02-24T01:19:45.753Z,72.30
2023-02-24T01:22:15.063Z,76.20
2023-02-24T01:24:44.330Z,78.30
2023-02-24T01:27:13.458Z,88.80
2023-02-24T01:29:41.416Z,83.10
2023-02-24T01:32:35.208Z,82.50
2023-02-24T01:35:02.002Z,87.70
2023-02-24T01:37:29.045Z,84.20
2023-02-24T01:39:55.935Z,86.10
2023-02-24T01:42:23.468Z,89.50
2023-02-24T01:44:52.295Z,74.30
2023-02-24T01:47:21.186Z,74.20
2023-02-24T01:49:52.740Z,60.90
2023-02-24T01:52:34.523Z,62.40
2023-02-24T01:55:33.335Z,63.30
2023-02-24T01:58:04.760Z,60.20
2023-02-24T02:00:46.879Z,62.10
2023-02-24T02:03:24.263Z,61.60
2023-02-24T02:05:53.023Z,60.10
2023-02-24T02:08:22.024Z,62.60
2023-02-24T02:10:48.928Z,65.70
2023-02-24T02:13:21.580Z,63.80
2023-02-24T02:16:02.973Z,56.60
2023-02-24T02:18:36.469Z,57.80
2023-02-24T02:21:36.309Z,63.70
2023-02-24T02:24:28.818Z,58.40
2023-02-24T02:27:15.528Z,66.30
2023-02-24T02:30:09.602Z,66.70
2023-02-24T02:32:51.967Z,65.80
2023-02-24T02:35:26.434Z,66.50
2023-02-24T02:38:03.296Z,68.00
2023-02-24T02:40:48.287Z,66.50
2023-02-24T02:43:31.443Z,70.00
2023-02-24T02:46:05.589Z,64.90
2023-02-24T02:48:43.583Z,69.90
2023-02-24T02:51:17.035Z,69.50
2023-02-24T02:53:54.995Z,69.20
2023-02-24T02:56:47.077Z,67.80
2023-02-24T02:59:22.607Z,69.00
2023-02-24T03:01:52.674Z,68.40
2023-02-24T03:04:23.311Z,70.50
2023-02-24T03:06:57.136Z,68.10
2023-02-24T03:09:29.504Z,68.40
2023-02-24T03:12:02.248Z,70.70
2023-02-24T03:14:37.687Z,69.00
2023-02-24T03:17:09.981Z,60.80
2023-02-24T03:19:39.704Z,65.60
2023-02-24T03:22:15.416Z,65.30
2023-02-24T03:24:44.383Z,62.30
2023-02-24T03:27:37.434Z,68.80
2023-02-24T03:30:11.222Z,63.80
2023-02-24T03:32:54.985Z,67.90
2023-02-24T03:35:36.684Z,71.70
2023-02-24T03:38:06.345Z,67.90
2023-02-24T03:40:36.124Z,64.10
2023-02-24T03:43:10.057Z,61.60
2023-02-24T03:45:38.484Z,65.30
2023-02-24T03:48:08.356Z,65.30
2023-02-24T03:50:38.071Z,63.60
2023-02-24T03:53:33.277Z,60.30
2023-02-24T03:56:40.470Z,66.50
2023-02-24T03:59:57.802Z,66.00
2023-02-24T04:02:32.994Z,64.80
2023-02-24T04:05:13.749Z,64.70
2023-02-24T04:08:05.431Z,62.40
2023-02-24T04:10:54.469Z,66.90
2023-02-24T04:13:37.363Z,59.30
2023-02-24T04:16:48.180Z,65.70
2023-02-24T04:19:19.859Z,72.80
2023-02-24T04:21:51.093Z,65.50
2023-02-24T04:24:27.748Z,63.00
2023-02-24T04:26:59.153Z,59.10
2023-02-24T04:29:35.469Z,70.10
2023-02-24T04:32:10.028Z,70.00
2023-02-24T04:34:40.346Z,74.90
2023-02-24T04:37:08.200Z,68.10
2023-02-24T04:39:38.530Z,63.90
2023-02-24T04:42:09.581Z,67.50
2023-02-24T04:44:36.342Z,71.60
2023-02-24T04:47:04.011Z,65.60
2023-02-24T04:49:30.772Z,62.90
2023-02-24T04:51:57.511Z,67.40
2023-02-24T04:54:24.416Z,66.00
2023-02-24T04:56:52.611Z,63.80
2023-02-24T04:59:21.541Z,64.70
2023-02-24T05:01:51.605Z,64.20
2023-02-24T05:04:18.669Z,67.10
2023-02-24T05:06:46.333Z,70.90
2023-02-24T05:09:18.399Z,75.30
2023-02-24T05:11:50.522Z,69.00
2023-02-24T05:14:20.932Z,64.50
2023-02-24T05:16:49.196Z,67.00
2023-02-24T05:19:36.974Z,66.70
2023-02-24T05:22:07.021Z,60.40
2023-02-24T05:24:34.731Z,68.90
2023-02-24T05:27:03.741Z,65.20
2023-02-24T05:29:33.048Z,65.40
2023-02-24T05:32:00.460Z,71.00
2023-02-24T05:34:30.783Z,69.60
2023-02-24T05:36:59.591Z,71.40
2023-02-24T05:39:28.436Z,66.30
2023-02-24T05:41:56.947Z,68.30
2023-02-24T05:44:26.284Z,71.50
2023-02-24T05:46:58.844Z,68.70
2023-02-24T05:52:00.825Z,67.40
2023-02-24T05:54:33.587Z,65.80
2023-02-24T05:59:32.774Z,64.60
2023-02-24T06:02:07.140Z,68.30
2023-02-24T06:04:40.370Z,68.80
2023-02-24T06:07:13.993Z,72.10
2023-02-24T06:09:44.979Z,64.70
2023-02-24T06:12:14.699Z,75.40
2023-02-24T06:14:42.248Z,73.70
2023-02-24T06:17:09.460Z,75.60
2023-02-24T06:19:36.618Z,68.40
2023-02-24T06:22:04.070Z,65.00
2023-02-24T06:24:33.321Z,62.90
2023-02-24T06:27:09.817Z,64.80
2023-02-24T06:29:39.422Z,63.50
2023-02-24T06:32:08.830Z,63.80
2023-02-24T06:34:39.494Z,64.80
2023-02-24T06:37:07.389Z,65.10
2023-02-24T06:39:37.267Z,59.50
2023-02-24T06:42:05.212Z,68.90
2023-02-24T06:44:32.961Z,62.20
2023-02-24T06:47:00.166Z,64.80
2023-02-24T06:49:27.575Z,66.30
2023-02-24T06:51:55.309Z,69.70
2023-02-24T06:54:23.154Z,70.20
2023-02-24T06:56:50.431Z,68.80
2023-02-24T06:59:21.856Z,71.20
2023-02-24T07:01:49.298Z,69.60
2023-02-24T07:04:17.284Z,77.20
2023-02-24T07:06:52.054Z,76.40
2023-02-24T07:09:26.880Z,72.40
2023-02-24T07:11:56.110Z,69.50
2023-02-24T07:14:25.834Z,66.60
2023-02-24T07:16:57.985Z,65.90
2023-02-24T07:19:29.348Z,71.40
2023-02-24T07:22:00.161Z,68.30
2023-02-24T07:24:36.539Z,70.70
2023-02-24T07:27:06.920Z,72.00
2023-02-24T07:29:35.386Z,69.50
2023-02-24T07:32:05.557Z,69.60
2023-02-24T07:34:33.933Z,73.30
2023-02-24T07:37:08.075Z,67.90
2023-02-24T07:39:39.706Z,68.80
2023-02-24T07:42:10.525Z,71.90
2023-02-24T07:44:46.792Z,72.90
2023-02-24T07:47:16.134Z,71.80
2023-02-24T07:49:43.262Z,70.20
2023-02-24T07:52:11.667Z,68.40
2023-02-24T07:54:39.632Z,68.40
2023-02-24T07:57:13.761Z,77.90
2023-02-24T07:59:47.671Z,77.00
2023-02-24T08:02:15.486Z,72.10
2023-02-24T08:04:48.313Z,68.70
2023-02-24T08:07:15.015Z,76.00
2023-02-24T08:09:45.751Z,77.50
2023-02-24T08:12:21.845Z,80.30
2023-02-24T08:14:52.058Z,80.20
2023-02-24T08:17:21.218Z,70.50
2023-02-24T08:19:49.879Z,77.70
2023-02-24T08:22:20.948Z,74.10
2023-02-24T08:24:56.624Z,76.10
2023-02-24T08:27:26.154Z,76.70
2023-02-24T08:29:58.327Z,77.70
2023-02-24T08:32:33.962Z,67.30
2023-02-24T08:35:03.727Z,69.90
2023-02-24T08:37:39.842Z,78.20
2023-02-24T08:40:31.646Z,69.10
2023-02-24T08:43:19.595Z,70.70
2023-02-24T08:45:52.020Z,75.60
2023-02-24T08:48:32.545Z,76.50
2023-02-24T08:51:02.392Z,85.40
2023-02-24T08:53:31.917Z,83.70
2023-02-24T08:56:09.583Z,76.30
2023-02-24T08:58:41.268Z,76.90
2023-02-24T09:01:19.311Z,74.90
2023-02-24T09:03:48.269Z,76.60
2023-02-24T09:06:18.442Z,72.00
2023-02-24T09:08:46.172Z,73.40
2023-02-24T09:11:15.353Z,70.90
2023-02-24T09:13:58.237Z,74.80
2023-02-24T09:16:25.530Z,74.90
2023-02-24T09:19:15.903Z,75.60
2023-02-24T09:21:48.565Z,79.40
2023-02-24T09:24:27.114Z,76.80
2023-02-24T09:27:00.049Z,80.90
2023-02-24T09:29:33.873Z,81.40
2023-02-24T09:32:06.066Z,77.50
2023-02-24T09:34:35.685Z,73.90
2023-02-24T09:37:03.595Z,77.50
2023-02-24T09:39:55.309Z,78.20
2023-02-24T09:42:28.725Z,87.10
2023-02-24T09:45:02.468Z,94.40
2023-02-24T09:47:40.128Z,84.50
2023-02-24T09:50:47.330Z,83.50
2023-02-24T09:53:17.509Z,76.00
2023-02-24T09:56:00.755Z,80.70
2023-02-24T09:58:59.815Z,78.20
2023-02-24T10:01:45.264Z,80.40
2023-02-24T10:04:20.821Z,90.10
2023-02-24T10:07:03.065Z,79.80
2023-02-24T10:09:44.042Z,75.60
2023-02-24T10:12:13.791Z,82.10
2023-02-24T10:15:00.437Z,88.80
2023-02-24T10:17:40.354Z,86.20
2023-02-24T10:20:30.902Z,91.90
2023-02-24T10:23:18.015Z,86.40
2023-02-24T10:25:55.188Z,86.60
2023-02-24T10:28:36.805Z,91.50
2023-02-24T10:31:11.017Z,86.40
2023-02-24T10:33:45.296Z,89.80
2023-02-24T10:36:17.822Z,84.50
2023-02-24T10:38:46.078Z,79.90
2023-02-24T10:41:14.720Z,83.70
2023-02-24T10:43:47.621Z,85.20
2023-02-24T10:46:40.141Z,82.60
2023-02-24T10:49:11.838Z,85.30
2023-02-24T10:51:45.260Z,82.00
2023-02-24T10:54:25.099Z,84.40
2023-02-24T10:57:00.794Z,84.10
2023-02-24T10:59:58.468Z,81.80
2023-02-24T11:02:32.654Z,77.50
2023-02-24T11:05:38.606Z,89.20
2023-02-24T11:08:37.969Z,77.40
2023-02-24T11:11:25.812Z,83.50
2023-02-24T11:14:12.731Z,88.20
2023-02-24T11:17:10.598Z,82.30
2023-02-24T11:20:01.635Z,82.20
2023-02-24T11:22:35.345Z,76.50
2023-02-24T11:25:11.662Z,79.50
2023-02-24T11:27:42.737Z,80.00
2023-02-24T11:30:20.164Z,88.30
2023-02-24T11:33:17.400Z,83.30
2023-02-24T11:36:16.626Z,86.10
2023-02-24T11:38:50.245Z,65.00
2023-02-24T11:41:45.637Z,81.10
2023-02-24T11:44:17.090Z,81.50
2023-02-24T11:46:51.795Z,77.90
2023-02-24T11:49:36.385Z,84.10
2023-02-24T11:52:06.380Z,82.90
2023-02-24T11:54:41.797Z,84.70
2023-02-24T11:57:16.908Z,76.90
2023-02-24T11:59:48.357Z,77.00
2023-02-24T12:02:44.945Z,80.80
2023-02-24T12:05:27.186Z,74.20
2023-02-24T12:08:03.643Z,77.80
2023-02-24T12:10:35.606Z,72.20
2023-02-24T12:13:07.266Z,78.70
2023-02-24T12:15:41.518Z,74.20
2023-02-24T12:18:41.114Z,72.90
2023-02-24T12:21:15.045Z,82.10
2023-02-24T12:23:45.617Z,77.30
2023-02-24T12:26:24.693Z,83.10
2023-02-24T12:29:00.102Z,79.50
2023-02-24T12:31:53.606Z,77.90
2023-02-24T12:34:48.928Z,67.70
2023-02-24T12:37:44.779Z,70.20
2023-02-24T12:40:31.086Z,71.20
2023-02-24T12:43:14.420Z,67.90
2023-02-24T12:45:47.916Z,78.20
2023-02-24T12:48:17.673Z,77.90
2023-02-24T12:51:03.558Z,75.30
2023-02-24T12:53:48.394Z,78.70
2023-02-24T12:56:24.192Z,77.00
2023-02-24T12:58:56.499Z,74.90
2023-02-24T13:04:45.317Z,69.80
2023-02-24T13:07:37.105Z,74.90
2023-02-24T13:10:37.365Z,67.50
2023-02-24T13:13:25.419Z,70.80
2023-02-24T13:15:55.497Z,66.00
2023-02-24T13:18:33.996Z,71.60
2023-02-24T13:21:23.039Z,64.40
2023-02-24T13:23:59.878Z,69.90
2023-02-24T13:26:29.304Z,71.60
2023-02-24T13:29:11.720Z,69.80
2023-02-24T13:31:52.610Z,66.90
2023-02-24T13:34:22.085Z,72.30
2023-02-24T13:36:50.321Z,68.30
2023-02-24T13:39:38.246Z,65.20
2023-02-24T13:42:19.859Z,69.20
2023-02-24T13:44:54.174Z,71.30
2023-02-24T13:47:38.638Z,67.20
2023-02-24T13:50:20.775Z,67.50
2023-02-24T13:53:01.749Z,69.60
2023-02-24T13:55:32.080Z,72.80
2023-02-24T13:58:08.017Z,67.10
2023-02-24T14:00:52.568Z,74.20
2023-02-24T14:03:22.203Z,68.20
2023-02-24T14:05:51.483Z,68.10
2023-02-24T14:08:25.489Z,61.30
2023-02-24T14:10:56.666Z,64.50
2023-02-24T14:13:29.907Z,64.70
2023-02-24T14:15:59.632Z,65.30
2023-02-24T14:18:29.717Z,55.80
2023-02-24T14:20:58.065Z,65.50
2023-02-24T14:23:26.225Z,63.90
2023-02-24T14:25:57.261Z,66.40
2023-02-24T14:28:31.200Z,63.80
2023-02-24T14:31:01.865Z,68.30
2023-02-24T14:33:35.829Z,70.20
2023-02-24T14:36:05.020Z,66.30
2023-02-24T14:38:35.630Z,58.60
2023-02-24T14:41:05.685Z,56.80
2023-02-24T14:43:32.686Z,54.40
2023-02-24T14:46:05.593Z,52.30
2023-02-24T14:48:32.576Z,51.50
2023-02-24T14:51:08.772Z,45.60
2023-02-24T14:53:43.480Z,47.50
2023-02-24T14:56:12.829Z,45.20
2023-02-24T14:58:50.847Z,44.00
2023-02-24T15:01:28.858Z,45.40
2023-02-24T15:04:00.029Z,44.60
2023-02-24T15:06:32.095Z,49.00
2023-02-24T15:09:07.996Z,49.50
2023-02-24T15:11:37.224Z,51.00
2023-02-24T15:14:14.614Z,46.10
2023-02-24T15:16:47.295Z,48.70
2023-02-24T15:19:37.390Z,45.00
2023-02-24T15:22:17.572Z,47.20
2023-02-24T15:24:44.276Z,43.60
2023-02-24T15:27:13.805Z,45.20
2023-02-24T15:29:42.063Z,55.60
2023-02-24T15:32:18.997Z,50.50
2023-02-24T15:34:48.032Z,47.50
2023-02-24T15:37:16.547Z,56.00
2023-02-24T15:39:44.514Z,48.50
2023-02-24T15:42:28.665Z,50.90
2023-02-24T15:44:59.662Z,46.40
2023-02-24T15:47:28.442Z,48.40
2023-02-24T15:49:55.313Z,44.40
2023-02-24T15:52:25.256Z,48.70
2023-02-24T15:54:53.210Z,51.50
2023-02-24T15:57:20.699Z,51.50
2023-02-24T15:59:48.599Z,48.30
2023-02-24T16:02:20.837Z,52.30
2023-02-24T16:04:48.955Z,55.40
2023-02-24T16:07:26.055Z,54.20
2023-02-24T16:09:55.270Z,56.60
2023-02-24T16:12:35.432Z,54.00
2023-02-24T16:15:05.994Z,54.80
2023-02-24T16:17:32.716Z,52.70
2023-02-24T16:20:00.432Z,54.30
2023-02-24T16:22:28.303Z,59.90
2023-02-24T16:24:55.028Z,53.90
2023-02-24T16:27:23.494Z,50.60
2023-02-24T16:29:51.106Z,56.70
2023-02-24T16:32:18.013Z,57.20
2023-02-24T16:34:44.773Z,60.90
2023-02-24T16:37:23.179Z,60.70
2023-02-24T16:42:17.653Z,56.40
2023-02-24T16:44:45.114Z,58.70
2023-02-24T16:47:20.435Z,60.60
2023-02-24T16:49:47.220Z,68.30
2023-02-24T16:52:14.473Z,64.10
2023-02-24T16:54:41.159Z,67.60
2023-02-24T16:57:07.800Z,66.90
2023-02-24T16:59:34.500Z,66.90
2023-02-24T17:02:02.269Z,68.30
2023-02-24T17:04:29.742Z,64.60
2023-02-24T17:06:56.482Z,64.00
2023-02-24T17:09:23.418Z,63.90
2023-02-24T17:11:50.459Z,63.00
2023-02-24T17:14:20.318Z,62.60
2023-02-24T17:16:47.363Z,63.20
2023-02-24T17:19:14.691Z,62.80
2023-02-24T17:21:45.481Z,64.80
2023-02-24T17:24:17.959Z,60.80
2023-02-24T17:29:13.812Z,68.10
2023-02-24T17:31:42.440Z,64.40
2023-02-24T17:34:10.032Z,60.60
2023-02-24T17:36:36.704Z,62.10
2023-02-24T17:39:03.567Z,67.30
2023-02-24T17:41:30.470Z,58.20
2023-02-24T17:43:57.216Z,61.80
2023-02-24T17:46:24.404Z,64.70
2023-02-24T17:48:51.296Z,59.30
2023-02-24T17:51:19.932Z,59.40
2023-02-24T17:53:46.898Z,63.70
2023-02-24T17:56:13.684Z,59.30
2023-02-24T17:58:40.456Z,58.20
2023-02-24T18:01:07.533Z,56.50
2023-02-24T18:03:36.177Z,62.30
2023-02-24T18:06:07.760Z,61.90
2023-02-24T18:08:36.004Z,62.40
2023-02-24T18:11:03.687Z,66.80
2023-02-24T18:13:31.769Z,62.30
2023-02-24T18:15:59.305Z,65.40
2023-02-24T18:18:27.190Z,63.90
2023-02-24T18:20:55.333Z,65.60
2023-02-24T18:23:23.636Z,69.10
2023-02-24T18:25:50.338Z,64.80
2023-02-24T18:28:17.212Z,64.20
2023-02-24T18:30:43.890Z,62.40
2023-02-24T18:33:10.740Z,62.40
2023-02-24T18:35:38.814Z,59.80
2023-02-24T18:38:05.770Z,62.90
2023-02-24T18:40:32.483Z,62.40
2023-02-24T18:42:59.197Z,59.70
2023-02-24T18:45:25.944Z,57.40
2023-02-24T18:47:53.234Z,59.70
2023-02-24T18:50:20.764Z,56.20
2023-02-24T18:52:47.592Z,57.80
2023-02-24T18:55:14.262Z,58.30
2023-02-24T18:57:41.120Z,61.20
2023-02-24T19:00:09.060Z,64.20
2023-02-24T19:02:35.873Z,61.90
2023-02-24T19:05:02.654Z,63.80
2023-02-24T19:07:29.392Z,58.70
2023-02-24T19:09:56.241Z,63.60
2023-02-24T19:12:24.157Z,59.10
2023-02-24T19:14:52.516Z,64.00
2023-02-24T19:17:20.237Z,60.60
2023-02-24T19:19:47.027Z,61.60
2023-02-24T19:22:13.768Z,63.40
2023-02-24T19:24:40.587Z,63.60
2023-02-24T19:27:08.766Z,63.80
2023-02-24T19:29:35.816Z,68.50
2023-02-24T19:32:02.726Z,68.80
2023-02-24T19:34:29.621Z,68.30
2023-02-24T19:36:56.436Z,69.60
2023-02-24T19:39:23.265Z,67.50
2023-02-24T19:41:50.164Z,75.80
2023-02-24T19:44:17.027Z,59.90
2023-02-24T19:46:43.884Z,58.70
2023-02-24T19:49:10.811Z,64.70
2023-02-24T19:51:37.634Z,55.20
2023-02-24T19:54:06.272Z,97.20
2023-02-24T19:56:36.922Z,139.80
2023-02-24T19:59:07.412Z,75.10
2023-02-24T20:01:34.211Z,71.80
2023-02-24T20:04:03.846Z,62.70
2023-02-24T20:06:36.260Z,66.50
2023-02-24T20:09:16.729Z,65.40
2023-02-24T20:11:45.722Z,62.50
2023-02-24T20:14:13.111Z,63.50
2023-02-24T20:16:41.582Z,62.70
2023-02-24T20:19:09.700Z,60.90
2023-02-24T20:21:38.555Z,59.70
2023-02-24T20:24:08.538Z,61.80
2023-02-24T20:26:37.608Z,62.20
2023-02-24T20:29:04.894Z,63.40
2023-02-24T20:31:31.738Z,60.90
2023-02-24T20:33:58.544Z,65.60
2023-02-24T20:36:27.790Z,62.80
2023-02-24T20:38:54.970Z,67.20
2023-02-24T20:41:22.374Z,63.70
2023-02-24T20:43:49.576Z,60.90
2023-02-24T20:46:29.762Z,59.50
2023-02-24T20:49:00.920Z,60.80
2023-02-24T20:51:29.532Z,57.10
2023-02-24T20:53:58.470Z,60.90
2023-02-24T20:56:33.090Z,62.40
2023-02-24T20:59:05.178Z,60.30
2023-02-24T21:01:33.758Z,62.70
2023-02-24T21:04:02.166Z,64.90
2023-02-24T21:06:29.818Z,66.10
2023-02-24T21:08:57.484Z,62.90
2023-02-24T21:11:24.779Z,61.10
2023-02-24T21:13:52.190Z,62.90
2023-02-24T21:16:21.241Z,62.20
2023-02-24T21:18:50.533Z,68.00
2023-02-24T21:21:19.492Z,65.10
2023-02-24T21:23:47.552Z,66.10
2023-02-24T21:26:15.175Z,67.70
2023-02-24T21:28:41.943Z,65.40
2023-02-24T21:31:15.520Z,66.00
2023-02-24T21:33:42.503Z,69.80
2023-02-24T21:36:13.707Z,73.50
2023-02-24T21:38:41.329Z,71.00
2023-02-24T21:41:15.914Z,66.20
2023-02-24T21:43:44.360Z,71.00
2023-02-24T21:46:13.481Z,69.10
2023-02-24T21:48:42.068Z,68.30
2023-02-24T21:51:12.729Z,66.10
2023-02-24T21:53:41.854Z,68.20
2023-02-24T21:56:19.174Z,65.00
2023-02-24T21:58:49.752Z,65.80
2023-02-24T22:01:23.079Z,69.20
2023-02-24T22:03:49.982Z,60.60
2023-02-24T22:06:20.388Z,64.60
2023-02-24T22:08:47.289Z,68.30
2023-02-24T22:11:18.848Z,69.00
2023-02-24T22:13:46.874Z,70.00
2023-02-24T22:16:18.157Z,69.90
2023-02-24T22:18:45.487Z,69.60
2023-02-24T22:21:17.307Z,65.90
2023-02-24T22:23:45.821Z,67.50
2023-02-24T22:26:13.916Z,68.20
2023-02-24T22:28:41.914Z,67.00
2023-02-24T22:31:10.431Z,64.30
2023-02-24T22:33:42.477Z,66.40
2023-02-24T22:36:12.598Z,58.90
2023-02-24T22:38:39.957Z,62.40
2023-02-24T22:41:12.409Z,66.20
2023-02-24T22:43:39.126Z,64.30
2023-02-24T22:46:08.682Z,63.60
2023-02-24T22:48:36.966Z,67.30
2023-02-24T22:51:06.798Z,66.00
2023-02-24T22:53:36.653Z,63.20
2023-02-24T22:56:03.388Z,66.40
2023-02-24T22:58:30.196Z,66.50
2023-02-24T23:00:58.502Z,68.50
2023-02-24T23:03:28.702Z,71.90
2023-02-24T23:06:01.312Z,66.60
2023-02-24T23:08:30.145Z,66.90
2023-02-24T23:11:04.256Z,61.90
2023-02-24T23:13:35.244Z,69.50
2023-02-24T23:16:06.649Z,64.60
2023-02-24T23:18:34.956Z,63.20
2023-02-24T23:21:04.605Z,62.90
2023-02-24T23:23:32.359Z,72.00
2023-02-24T23:25:59.687Z,66.70
2023-02-24T23:28:27.368Z,62.00
2023-02-24T23:30:55.411Z,59.70
2023-02-24T23:33:22.845Z,68.10
2023-02-24T23:35:49.901Z,61.50
2023-02-24T23:38:16.710Z,71.90
2023-02-24T23:40:50.037Z,69.40
2023-02-24T23:43:17.617Z,64.60
2023-02-24T23:45:44.433Z,69.30
2023-02-24T23:48:13.970Z,67.90
2023-02-24T23:50:42.636Z,68.50
2023-02-24T23:53:09.828Z,68.10
2023-02-24T23:55:40.141Z,67.50
2023-02-24T23:58:07.663Z,70.90
